sensor_id;sensor_type;location;lat;lon;timestamp;pressure;altitude;pressure_sealevel;temperature;humidity
68199;BME280;55021;51.554;17.044;2023-05-11T00:04:56;100658.44;;;13.68;52.66
68199;BME280;55021;51.554;17.044;2023-05-11T00:19:58;100631.94;;;12.96;54.75
68199;BME280;55021;51.554;17.044;2023-05-11T00:35:01;100659.88;;;13.22;53.89
68199;BME280;55021;51.554;17.044;2023-05-11T00:50:05;100586.38;;;13.40;53.34
68199;BME280;55021;51.554;17.044;2023-05-11T01:05:08;100664.72;;;13.52;54.18
68199;BME280;55021;51.554;17.044;2023-05-11T01:20:16;100656.97;;;13.15;53.86
68199;BME280;55021;51.554;17.044;2023-05-11T01:35:21;100668.66;;;12.66;55.67
68199;BME280;55021;51.554;17.044;2023-05-11T01:50:25;100676.56;;;12.26;55.92
68199;BME280;55021;51.554;17.044;2023-05-11T02:05:28;100685.88;;;12.23;56.76
68199;BME280;55021;51.554;17.044;2023-05-11T02:20:33;100683.31;;;12.22;57.43
68199;BME280;55021;51.554;17.044;2023-05-11T02:35:41;100674.63;;;12.44;56.50
68199;BME280;55021;51.554;17.044;2023-05-11T02:50:45;100671.53;;;12.13;56.58
68199;BME280;55021;51.554;17.044;2023-05-11T03:05:48;100682.88;;;12.60;55.24
68199;BME280;55021;51.554;17.044;2023-05-11T03:20:51;100698.22;;;12.17;58.03
68199;BME280;55021;51.554;17.044;2023-05-11T03:35:54;100690.06;;;12.17;59.33
68199;BME280;55021;51.554;17.044;2023-05-11T03:50:58;100681.31;;;12.57;57.87
68199;BME280;55021;51.554;17.044;2023-05-11T04:06:01;100696.97;;;13.47;57.28
68199;BME280;55021;51.554;17.044;2023-05-11T04:21:03;100677.81;;;13.73;55.70
68199;BME280;55021;51.554;17.044;2023-05-11T04:36:06;100676.13;;;14.20;55.23
68199;BME280;55021;51.554;17.044;2023-05-11T04:51:08;100670.53;;;14.85;51.85
68199;BME280;55021;51.554;17.044;2023-05-11T05:06:11;100695.75;;;15.48;50.30
68199;BME280;55021;51.554;17.044;2023-05-11T05:21:13;100705.50;;;15.96;51.04
68199;BME280;55021;51.554;17.044;2023-05-11T05:36:16;100712.19;;;16.83;49.20
68199;BME280;55021;51.554;17.044;2023-05-11T05:51:18;100717.44;;;17.28;47.60
68199;BME280;55021;51.554;17.044;2023-05-11T06:06:21;100729.56;;;17.76;46.97
68199;BME280;55021;51.554;17.044;2023-05-11T06:21:23;100731.16;;;18.49;46.34
68199;BME280;55021;51.554;17.044;2023-05-11T06:36:26;100727.88;;;18.88;45.13
68199;BME280;55021;51.554;17.044;2023-05-11T06:51:29;100725.41;;;19.40;45.04
68199;BME280;55021;51.554;17.044;2023-05-11T07:06:31;100726.91;;;19.97;44.69
68199;BME280;55021;51.554;17.044;2023-05-11T07:21:34;100729.00;;;21.06;41.31
68199;BME280;55021;51.554;17.044;2023-05-11T07:36:37;100748.41;;;21.37;42.63
68199;BME280;55021;51.554;17.044;2023-05-11T07:51:39;100721.41;;;20.88;40.44
68199;BME280;55021;51.554;17.044;2023-05-11T08:06:41;100704.56;;;22.43;39.79
68199;BME280;55021;51.554;17.044;2023-05-11T08:21:44;100715.59;;;22.18;42.72
68199;BME280;55021;51.554;17.044;2023-05-11T08:36:46;100722.13;;;22.91;41.91
68199;BME280;55021;51.554;17.044;2023-05-11T08:51:51;100714.09;;;22.15;40.83
68199;BME280;55021;51.554;17.044;2023-05-11T09:06:54;100735.97;;;21.73;44.31
68199;BME280;55021;51.554;17.044;2023-05-11T09:22:00;100669.31;;;22.27;41.62
68199;BME280;55021;51.554;17.044;2023-05-11T09:37:03;100709.34;;;21.60;41.57
68199;BME280;55021;51.554;17.044;2023-05-11T09:52:32;100725.16;;;22.40;38.83
68199;BME280;55021;51.554;17.044;2023-05-11T10:07:35;100704.25;;;23.84;40.93
68199;BME280;55021;51.554;17.044;2023-05-11T10:22:37;100698.66;;;24.44;34.55
68199;BME280;55021;51.554;17.044;2023-05-11T10:37:41;100682.81;;;23.68;37.13
68199;BME280;55021;51.554;17.044;2023-05-11T10:52:59;100683.81;;;23.85;36.67
68199;BME280;55021;51.554;17.044;2023-05-11T11:08:04;100654.78;;;23.95;38.34
68199;BME280;55021;51.554;17.044;2023-05-11T11:38:59;100676.84;;;24.24;37.41
68199;BME280;55021;51.554;17.044;2023-05-11T11:54:01;100671.00;;;25.02;35.37
68199;BME280;55021;51.554;17.044;2023-05-11T12:09:04;100666.06;;;24.81;33.62
68199;BME280;55021;51.554;17.044;2023-05-11T12:24:15;100662.44;;;24.34;33.88
68199;BME280;55021;51.554;17.044;2023-05-11T12:39:19;100663.75;;;24.31;35.92
68199;BME280;55021;51.554;17.044;2023-05-11T12:54:26;100639.63;;;25.64;29.34
68199;BME280;55021;51.554;17.044;2023-05-11T13:09:29;100604.84;;;24.31;33.74
68199;BME280;55021;51.554;17.044;2023-05-11T13:24:32;100586.56;;;24.07;31.72
68199;BME280;55021;51.554;17.044;2023-05-11T13:39:35;100607.34;;;24.21;31.39
68199;BME280;55021;51.554;17.044;2023-05-11T13:54:37;100608.75;;;24.93;30.19
68199;BME280;55021;51.554;17.044;2023-05-11T14:24:43;100533.53;;;23.86;33.44
68199;BME280;55021;51.554;17.044;2023-05-11T14:39:45;100588.22;;;23.25;33.06
68199;BME280;55021;51.554;17.044;2023-05-11T14:54:50;100573.09;;;23.99;29.29
68199;BME280;55021;51.554;17.044;2023-05-11T15:25:34;100581.34;;;22.61;31.93
68199;BME280;55021;51.554;17.044;2023-05-11T15:40:46;100567.66;;;22.30;33.30
68199;BME280;55021;51.554;17.044;2023-05-11T15:55:56;100592.38;;;22.19;32.75
68199;BME280;55021;51.554;17.044;2023-05-11T16:11:03;100590.50;;;22.12;33.69
68199;BME280;55021;51.554;17.044;2023-05-11T16:26:06;100576.06;;;21.92;33.00
68199;BME280;55021;51.554;17.044;2023-05-11T16:41:09;100571.13;;;22.01;33.92
68199;BME280;55021;51.554;17.044;2023-05-11T16:56:14;100581.25;;;21.51;33.82
68199;BME280;55021;51.554;17.044;2023-05-11T17:11:24;100590.91;;;20.84;33.08
68199;BME280;55021;51.554;17.044;2023-05-11T17:26:28;100587.25;;;20.90;34.47
68199;BME280;55021;51.554;17.044;2023-05-11T17:57:10;100621.88;;;20.34;35.44
68199;BME280;55021;51.554;17.044;2023-05-11T18:12:48;100624.28;;;19.37;38.56
68199;BME280;55021;51.554;17.044;2023-05-11T18:43:35;100621.94;;;17.48;45.75
68199;BME280;55021;51.554;17.044;2023-05-11T18:58:43;100677.41;;;16.77;45.81
68199;BME280;55021;51.554;17.044;2023-05-11T19:13:45;100705.25;;;14.83;52.25
68199;BME280;55021;51.554;17.044;2023-05-11T19:28:48;100724.47;;;15.28;52.53
68199;BME280;55021;51.554;17.044;2023-05-11T19:43:53;100725.22;;;14.75;52.34
68199;BME280;55021;51.554;17.044;2023-05-11T19:59:01;100748.47;;;13.49;57.18
68199;BME280;55021;51.554;17.044;2023-05-11T20:14:08;100759.91;;;13.26;56.17
68199;BME280;55021;51.554;17.044;2023-05-11T20:29:10;100757.38;;;12.40;60.29
68199;BME280;55021;51.554;17.044;2023-05-11T20:44:13;100773.19;;;12.70;59.46
68199;BME280;55021;51.554;17.044;2023-05-11T20:59:16;100794.47;;;12.83;56.34
68199;BME280;55021;51.554;17.044;2023-05-11T21:14:19;100776.53;;;12.90;54.49
68199;BME280;55021;51.554;17.044;2023-05-11T21:29:21;100740.84;;;13.18;51.86
68199;BME280;55021;51.554;17.044;2023-05-11T21:44:37;100802.41;;;13.77;51.73
68199;BME280;55021;51.554;17.044;2023-05-11T21:59:39;100785.16;;;13.11;53.09
68199;BME280;55021;51.554;17.044;2023-05-11T22:14:42;100809.72;;;13.35;52.99
68199;BME280;55021;51.554;17.044;2023-05-11T22:29:54;100831.09;;;13.30;53.12
68199;BME280;55021;51.554;17.044;2023-05-11T22:44:58;100805.81;;;13.79;51.65
68199;BME280;55021;51.554;17.044;2023-05-11T23:00:28;100821.59;;;13.68;52.59
68199;BME280;55021;51.554;17.044;2023-05-11T23:15:55;100825.06;;;13.44;52.74
68199;BME280;55021;51.554;17.044;2023-05-11T23:30:59;100807.81;;;13.69;51.44
68199;BME280;55021;51.554;17.044;2023-05-11T23:46:02;100787.44;;;13.65;51.43
